Results by/Résultats par Info:[email protected] Phone: (613)260-0994
  

                                     K-TOWN TRIATHLON

                                  Sunday August 5th, 2001
                           Confederation Park, Kingston, Ontario

                                Overall Results - Duathlon

  -----FINAL----- ----------------------- ------------ -------------------- ----            4km                         30 km                   7.2 km
                                                       Category                     --------RUN-----------    ----------BIKE--------    ---------RUN----------
    Pos     Time  Name                    City         Plc/Total Category     #      Cat  Ovr  Time     km     Cat Ovr Time  km/hr      Cat  Ovr  Time     km
  ------  ------- ----------------------- ------------ -------------------- ----    ----------------------    ----------------------    ----------------------
    1     1:34:14 James Layfield          Toronto        1/11  M35 - 39      301    1      1   14:55  3:44    1      3   50:30  35.6     1      1   28:49  4:01 
    2     1:36:46 Kim Kavluk              Stouffville    1/8   M45 - 49      201    1      4   15:32  3:53    2      5   52:05  34.6     1      2   29:10  4:03 
    3     1:37:05 Rob Droughan            Toronto        1/12  M40 - 44      239    1      5   15:34  3:54    1      2   49:27  36.4     2      7   32:05  4:28 
    4     1:40:09 Bob Tysen               Kingston       2/8   M45 - 49      534    3     28   17:58  4:30    1      1   48:51  36.9     2     15   33:20  4:38 
    5     1:40:15 Louis Tay               Kingston       2/11  M35 - 39      187    2      3   15:26  3:52    2      6   53:37  33.6     2      3   31:13  4:21 
    6     1:41:08 Allan Anderson          Ottawa         2/12  M40 - 44      208    3      9   16:09  4:03    3      7   53:39  33.6     1      4   31:21  4:22 
    7     1:41:50 Gerry Lashley           Toronto        1/9   M30 - 34      481    1      2   15:13  3:49    1      8   53:58  33.4     1     11   32:40  4:33 
    8     1:42:41 Bill McLennan           Almonte        3/12  M40 - 44       57    5     20   17:05  4:17    2      4   51:53  34.7     5     19   33:44  4:42 
    9     1:43:09 Brian Lansdowne         Plainfield     1/6   M50 - 54      402    1      7   15:57  4:00    1     17   55:30  32.4     1      6   31:43  4:25 
   10     1:43:33 Cam Miller              Kingston       2/9   M30 - 34      508    2     10   16:10  4:03    2     10   54:07  33.3     2     14   33:17  4:38 
   11     1:43:47 Amanda Shaw             Hull           1/2   W25 - 29      367    1     21   17:11  4:18    1      9   54:06  33.3     1     10   32:31  4:31 
   12     1:44:13 Glenn Vollebregt        Kingston       3/11  M35 - 39      166    3     11   16:16  4:04    4     16   55:28  32.5     3      9   32:30  4:31 
   13     1:45:00 Lisa Balerna            Nepean         1/6   W30 - 34       83    1     14   16:35  4:09    1     21   56:52  31.7     1      5   31:34  4:23 
   14     1:45:44 Gerald McKinley         Kingston       1/4   M25 - 29      196    1     17   16:55  4:14    1     15   55:12  32.6     1     17   33:38  4:41 
   15     1:45:47 Philip Chan             Hamilton       1/6   M20 - 24      254    4     19   17:00  4:15    2     14   55:06  32.7     3     18   33:42  4:41 
   16     1:46:18 Gregg Milne             Kingston       2/6   M20 - 24      121    3     13   16:24  4:06    4     25   57:39  31.2     1      8   32:15  4:29 
   17     1:46:26 Eric Davies             Kingston       4/11  M35 - 39      516    4     16   16:42  4:11    3     11   54:21  33.1     4     25   35:24  4:55 
   18     1:47:09 Gilbert Harboun         Oshawa         4/12  M40 - 44      431    7     25   17:35  4:24    4     20   56:23  31.9     3     13   33:12  4:37 
   19     1:49:10 Ray BALCOM              Ottawa         3/8   M45 - 49      566    4     32   18:24  4:36    3     13   54:51  32.8     4     27   35:57  5:00 
   20     1:49:36 Wendy FITZPATRICK       Ottawa         2/6   W30 - 34      543    2     24   17:29  4:23    2     29   57:56  31.1     2     21   34:12  4:45 
   21     1:49:43 Wayne CHEE              North York     4/8   M45 - 49      549    2     18   16:59  4:15    5     28   57:56  31.1     3     23   34:50  4:51 
   22     1:49:46 Brad Power              Kingston       3/6   M20 - 24      382    6     37   18:46  4:42    3     18   55:30  32.4     4     26   35:30  4:56 
   23     1:51:10 Belinda Jeromchuk       Gloucester     1/8   W35 - 39      470    1     22   17:20  4:20    1     24   57:24  31.4     1     28   36:26  5:04 
   24     1:51:43 Mathew Bradley          Stittsville    4/6   M20 - 24      535    5     31   18:23  4:36    1     12   54:48  32.9     5     43   38:34  5:22 
   25     1:51:45 Wally Taylor            Amherstview    5/12  M40 - 44      122    8     26   17:51  4:28    5     23   57:15  31.5     7     29   36:40  5:06 
   26     1:52:54 Clifford LaFontaine     Chateauguay    6/12  M40 - 44      192    2      6   15:52  3:58    6     43 1:03:37  28.3     4     16   33:26  4:39 
   27     1:53:01 Ian Thorpe              Carleton Pla   2/6   M50 - 54      212    2     34   18:36  4:39    2     22   57:04  31.6     2     33   37:22  5:12 
   28     1:54:08 David TOFTS             Kingston       3/9   M30 - 34      544    3     27   17:55  4:29    4     36 1:01:47  29.1     3     22   34:27  4:48 
   29     1:54:35 Michael Shewchuk        Ottawa         5/6   M20 - 24      346    2     12   16:18  4:05    6     51 1:05:10  27.6     2     12   33:07  4:36 
   30     1:54:51 David Pubrat            North York     2/4   M25 - 29      349    2     36   18:44  4:41    2     27   57:43  31.2     2     42   38:24  5:20 
   31     1:55:02 Ed Mark                 Toronto        7/12  M40 - 44      316    4     15   16:37  4:10    8     47 1:04:23  28.0     6     20   34:02  4:44 
   32     1:55:30 Bill Legere             Kingston       5/11  M35 - 39      512    6     40   19:17  4:50    5     32   59:34  30.2     5     30   36:40  5:06 
   33     1:56:01 Chris PELTZER           Hanover        3/4   M25 - 29      555    3     38   18:56  4:44    3     30   58:29  30.8     3     44   38:37  5:22 
   34     1:56:06 Ken Mutch               Borden         4/9   M30 - 34       60    7     60   21:00  5:15    3     19   55:38  32.4     6     46   39:29  5:29 
   35     1:56:18 Andre Dostaler          Kingston       5/8   M45 - 49      528    8     56   20:45  5:12    4     26   57:41  31.2     6     39   37:54  5:16 
   36     1:58:12 Joan Scibetta           Brewerton      2/8   W35 - 39      148    2     42   19:31  4:53    2     34 1:00:22  29.8     4     41   38:20  5:20 
   37     1:59:26 Patrick Foran           Tweed          6/6   M20 - 24      398    1      8   16:06  4:02    5     33   59:49  30.1     6     61   43:32  6:03 
   38     1:59:34 David O'Connor          Kingston       6/11  M35 - 39      397    5     35   18:39  4:40    6     37 1:02:54  28.6     6     40   38:02  5:17 
   39     2:00:06 Peter Kingston          Kingston       6/8   M45 - 49      450    5     41   19:18  4:50    6     35 1:01:00  29.5     7     47   39:48  5:32 
   40     2:00:29 Anne Myers              Kingston       1/1   Junior Women  199    1     29   18:02  4:31    1     44 1:03:42  28.3     1     45   38:47  5:24 
   41     2:00:47 Bill Duphney            Wolfe Island   3/6   M50 - 54      526    3     47   19:51  4:58    3     41 1:03:12  28.5     3     37   37:45  5:15 
   42     2:02:12 Jim Storms              Kingston       7/8   M45 - 49       59    7     48   19:53  4:59    8     48 1:04:45  27.8     5     35   37:34  5:14 
   43     2:03:16 Sheri McCready          Kingston       3/8   W35 - 39      448    3     53   20:13  5:04    4     55 1:05:52  27.3     2     32   37:12  5:10 
   44     2:03:21 Colleen Cameron         Kingston       1/4   W20 - 24       37    1     49   19:55  4:59    1     38 1:03:04  28.5     1     51   40:23  5:37 
   45     2:03:25 Keith Morgan            Kingston       5/9   M30 - 34      284    4     30   18:07  4:32    7     70 1:10:08  25.7     4     24   35:11  4:54 
   46     2:03:47 Kim McFarlane           Kingston       3/6   W30 - 34      514    3     70   21:27  5:22    4     52 1:05:21  27.6     3     31   37:01  5:09 
   47     2:04:27 Greg Unger              Caledon East   8/8   M45 - 49      185    6     44   19:41  4:56    7     39 1:03:09  28.5     8     54   41:38  5:47 
   48     2:04:37 Mark Atkins             Kingston       4/4   M25 - 29      163    4     65   21:20  5:20    4     31   59:19  30.4     4     63   43:59  6:07 
   49     2:05:44 Jim Keech               Bath           8/12  M40 - 44      206    10    46   19:45  4:57    9     54 1:05:38  27.4     9     50   40:22  5:37 
   50     2:05:57 Luc Monette             Ottawa         9/12  M40 - 44      225    6     23   17:24  4:21    12    72 1:11:01  25.3     8     34   37:32  5:13 
   51     2:06:45 Tim Thompson            Kingston       7/11  M35 - 39      109    8     50   19:56  4:59    7     40 1:03:11  28.5     9     62   43:39  6:04 
   52     2:07:12 George Taylor           Yarker         6/9   M30 - 34       82    5     39   19:14  4:49    5     57 1:06:39  27.0     7     53   41:19  5:45 
   53     2:08:27 Philip Nicholson        Kingston       8/11  M35 - 39      513    9     55   20:41  5:11    9     62 1:07:57  26.5     7     48   39:50  5:32 
   54     2:08:31 Cathy Campanaro         Kingston       4/8   W35 - 39      229    6     63   21:13  5:19    7     68 1:09:35  25.9     3     36   37:44  5:15 
   55     2:08:38 Uljana Slejskova        Gloucester     5/8   W35 - 39      101    7     72   21:46  5:27    3     42 1:03:27  28.4     6     59   43:26  6:02 
   56     2:08:47 Robert LUKSHIS          Stittsville    9/11  M35 - 39      559    7     43   19:40  4:55    8     49 1:04:46  27.8     10    65   44:22  6:10 
   57     2:09:32 Brian Lewis             Kingston      10/12  M40 - 44       97    11    52   20:12  5:03    7     46 1:03:57  28.1     10    67   45:24  6:19 
   58     2:09:34 Sandy Musson            Trenton        6/8   W35 - 39       84    5     58   20:51  5:13    5     59 1:06:57  26.9     5     55   41:47  5:49 
   59     2:10:04 Peter Ellis             Kingston      10/11  M35 - 39      238    11    69   21:25  5:22    10    65 1:08:41  26.2     8     49   39:58  5:33 
   60     2:11:03 Jill ROBINSON           Toronto        2/2   W25 - 29      565    2     54   20:20  5:05    2     69 1:10:04  25.7     2     52   40:40  5:39 
   61     2:12:15 Brenda ROSS             Ottawa         7/8   W35 - 39      557    4     57   20:51  5:13    6     61 1:07:53  26.5     7     60   43:32  6:03 
   62     2:12:31 Andrea Mckenzie         Ottawa         2/4   W20 - 24      542    2     68   21:25  5:22    2     63 1:08:34  26.3     2     56   42:33  5:55 
   63     2:12:48 Dennis MAHONEY          Roblin         7/9   M30 - 34      560    6     45   19:44  4:56    9     76 1:15:11  23.9     5     38   37:53  5:16 
   64     2:13:39 Pauline Zahalan         Toronto        1/1   W45 - 49      482    1     64   21:19  5:20    1     66 1:08:58  26.1     1     58   43:23  6:02 
   65     2:13:44 Dennis Doherty          Kingston       1/1   M60 & Over    115    1     51   20:04  5:01    1     67 1:09:00  26.1     1     66   44:41  6:13 
   66     2:14:08 Karen Brownlee          Kingston       4/6   W30 - 34      155    6     76   23:01  5:46    3     45 1:03:42  28.3     6     73   47:26  6:36 
   67     2:14:29 Luis ALVARADO           Toronto        8/9   M30 - 34      564    8     61   21:01  5:16    6     60 1:07:27  26.7     8     68   46:02  6:24 
   68     2:15:54 Bruce Briard            Ajax          11/12  M40 - 44      312    12    75   22:57  5:45    10    56 1:06:06  27.2     11    71   46:52  6:31 
   69     2:17:40 Patti McCauley          Kingston       1/2   W40 - 44      388    1     62   21:04  5:16    2     73 1:12:31  24.8     1     64   44:07  6:08 
   70     2:17:58 Nadine Collin           Kingston       5/6   W30 - 34      343    5     74   22:54  5:44    5     64 1:08:41  26.2     5     69   46:24  6:27 
   71     2:18:54 Steve Gammon            Odessa         9/9   M30 - 34      169    9     67   21:24  5:21    8     71 1:10:32  25.5     9     72   46:59  6:32 
   72     2:19:12 Emily Wilson            Ottawa         6/6   W30 - 34      496    4     71   21:32  5:23    6     75 1:14:44  24.1     4     57   42:56  5:58 
   73     2:21:43 Shirley Lindenberg      Belleville     2/2   W40 - 44      410    2     79   24:48  6:12    1     50 1:04:53  27.7     2     75   52:03  7:14 
   74     2:21:46 Paul Hibbins            Toronto        4/6   M50 - 54      110    5     77   24:35  6:09    4     53 1:05:36  27.4     4     74   51:36  7:10 
   75     2:27:41 Reiner Estrada          Ottawa        11/11  M35 - 39      429    10    59   20:56  5:14    11    74 1:14:43  24.1     11    76   52:03  7:14 
   76     2:32:57 Katie Auger             Bolton         3/4   W20 - 24      539    3     73   22:49  5:43    3     78 1:23:43  21.5     3     70   46:26  6:27 
   77     2:59:34 Danielle Chanda         Kingston       4/4   W20 - 24      524    4     81   30:04  7:31    4     79 1:25:45  21.0     4     77 1:03:47  8:52 
   78     3:00:02 Mike Walker             Seely's Bay    5/6   M50 - 54      267    6     80   26:22  6:36    5     77 1:21:37  22.1     5     78 1:12:04 10:01 
   79 DNF         Greg Lamb               Nepean        12/12  M40 - 44      436    9     33   18:27  4:37    11    58 1:06:54  26.9                            
   80 DNF         John Collins            Oshawa         6/6   M50 - 54      426    4     66   21:24  5:21                                                      
   81             Maureen Stocker         North York     8/8   W35 - 39      449    8     78   24:39  6:10